Terminal Aerodrome Forecast
Issued by NWS Huntsville, AL

Home | Current Version | Previous Version | Text Only | Print | Product List | Glossary On
Versions: 1 2 3 4 5 6 7 8 9 10 11 12 13 14 15 16 17 18 19 20 21 22 23 24 25 26 27 28 29 30 31 32 33 34 35 36 37 38 39 40 41 42 43 44 45 46
000
FTUS44 KHUN 261120
TAFHSV
TAF
KHSV 261120Z 2612/2712 VRB02KT P6SM SCT150
      TEMPO 2612/2613 4SM BR
     FM261300 VRB04KT P6SM FEW035 SCT100
     FM261600 VRB04KT P6SM SCT050
     FM270200 VRB02KT P6SM SKC=

USA.gov is the U.S. government's official web portal to all federal, state and local government web resources and services.